AIB509 RPMR-RPLL
Flight info
| Callsign | AIB509 |
|---|---|
| Flight time | N/A |
| Altitude | 38000 |
| Route | LATIA4P LATIA W6 LUMVI B473 LAIYA LAIYA7R |
| Aircraft | A346/H-SDE2E3FGHIJ3J4J5M1RWXY/LB1D1 |
Departure
| Time | 2026-05-07 22:39 |
|---|---|
| Airport | General Santos International Airport (RPMR) |
Arrival
| Time | N/A |
|---|---|
| Airport | Ninoy Aquino International Airport (RPLL) |
| Time | Latitude | Longitude | Altitude | Speed | Heading |
|---|---|---|---|---|---|
| 2026-05-07 22:08 | 6.05777 | 125.09927 | 523 ft | 0 kts | 83° |
| 2026-05-07 22:25 | 6.05775 | 125.09905 | 521 ft | 0 kts | 83° |
| 2026-05-07 22:26 | 6.05772 | 125.09886 | 520 ft | 0 kts | 83° |
| 2026-05-07 22:26 | 6.05772 | 125.09885 | 520 ft | 0 kts | 83° |
| 2026-05-07 22:27 | 6.05772 | 125.09886 | 520 ft | 0 kts | 83° |
| 2026-05-07 22:31 | 6.05770 | 125.09891 | 520 ft | 2 kts | 128° |
| 2026-05-07 22:31 | 6.05740 | 125.09889 | 523 ft | 7 kts | 191° |
| 2026-05-07 22:31 | 6.05681 | 125.09884 | 522 ft | 10 kts | 173° |
| 2026-05-07 22:32 | 6.05602 | 125.09894 | 523 ft | 13 kts | 173° |
| 2026-05-07 22:32 | 6.05512 | 125.09905 | 523 ft | 11 kts | 173° |
| 2026-05-07 22:32 | 6.05459 | 125.09912 | 523 ft | 6 kts | 173° |
| 2026-05-07 22:32 | 6.05427 | 125.09894 | 523 ft | 7 kts | 237° |
| 2026-05-07 22:33 | 6.05411 | 125.09839 | 523 ft | 10 kts | 261° |
| 2026-05-07 22:33 | 6.05402 | 125.09761 | 523 ft | 13 kts | 263° |
| 2026-05-07 22:33 | 6.05395 | 125.09701 | 523 ft | 6 kts | 263° |
| 2026-05-07 22:33 | 6.05371 | 125.09675 | 522 ft | 6 kts | 189° |
| 2026-05-07 22:34 | 6.05313 | 125.09680 | 522 ft | 12 kts | 174° |
| 2026-05-07 22:34 | 6.05205 | 125.09693 | 522 ft | 18 kts | 173° |
| 2026-05-07 22:34 | 6.05071 | 125.09709 | 522 ft | 20 kts | 173° |
| 2026-05-07 22:34 | 6.04924 | 125.09727 | 524 ft | 22 kts | 173° |
| 2026-05-07 22:35 | 6.04760 | 125.09747 | 523 ft | 25 kts | 173° |
| 2026-05-07 22:35 | 6.04602 | 125.09767 | 523 ft | 13 kts | 173° |
| 2026-05-07 22:35 | 6.04532 | 125.09776 | 523 ft | 9 kts | 166° |
| 2026-05-07 22:35 | 6.04503 | 125.09824 | 523 ft | 9 kts | 91° |
| 2026-05-07 22:36 | 6.04506 | 125.09870 | 522 ft | 11 kts | 83° |
| 2026-05-07 22:36 | 6.04509 | 125.09919 | 522 ft | 4 kts | 105° |
| 2026-05-07 22:36 | 6.04463 | 125.09947 | 522 ft | 8 kts | 172° |
| 2026-05-07 22:36 | 6.04424 | 125.09949 | 522 ft | 6 kts | 184° |
| 2026-05-07 22:37 | 6.04395 | 125.09919 | 522 ft | 8 kts | 252° |
| 2026-05-07 22:37 | 6.04385 | 125.09855 | 523 ft | 11 kts | 264° |
| 2026-05-07 22:37 | 6.04382 | 125.09814 | 523 ft | 2 kts | 273° |
| 2026-05-07 22:37 | 6.04388 | 125.09802 | 524 ft | 3 kts | 308° |
| 2026-05-07 22:38 | 6.04410 | 125.09788 | 524 ft | 5 kts | 337° |
| 2026-05-07 22:38 | 6.04452 | 125.09783 | 524 ft | 10 kts | 353° |
| 2026-05-07 22:38 | 6.04751 | 125.09748 | 523 ft | 81 kts | 353° |
| 2026-05-07 22:38 | 6.05538 | 125.09651 | 522 ft | 145 kts | 353° |
| 2026-05-07 22:39 | 6.06685 | 125.09510 | 738 ft | 178 kts | 353° |
| 2026-05-07 22:39 | 6.07927 | 125.09372 | 1463 ft | 179 kts | 358° |
| 2026-05-07 22:39 | 6.09153 | 125.09447 | 2318 ft | 175 kts | 7° |
| 2026-05-07 22:39 | 6.10386 | 125.09604 | 2876 ft | 185 kts | 9° |
| 2026-05-07 22:40 | 6.11722 | 125.09795 | 3287 ft | 202 kts | 11° |
| 2026-05-07 22:40 | 6.13055 | 125.10352 | 3659 ft | 219 kts | 40° |
| 2026-05-07 22:40 | 6.14093 | 125.11556 | 4060 ft | 239 kts | 54° |
| 2026-05-07 22:40 | 6.15075 | 125.12984 | 4561 ft | 257 kts | 56° |
| 2026-05-07 22:41 | 6.16125 | 125.14504 | 5168 ft | 270 kts | 55° |
| 2026-05-07 22:41 | 6.17232 | 125.16043 | 6021 ft | 273 kts | 54° |
| 2026-05-07 22:41 | 6.18373 | 125.17586 | 6878 ft | 276 kts | 54° |
| 2026-05-07 22:41 | 6.19533 | 125.19133 | 7727 ft | 279 kts | 54° |
| 2026-05-07 22:42 | 6.20712 | 125.20697 | 8580 ft | 282 kts | 54° |
| 2026-05-07 22:42 | 6.21906 | 125.22273 | 9463 ft | 285 kts | 53° |
| 2026-05-07 22:42 | 6.23379 | 125.23642 | 10263 ft | 292 kts | 35° |
| 2026-05-07 22:42 | 6.25264 | 125.24481 | 10953 ft | 305 kts | 18° |
| 2026-05-07 22:43 | 6.27384 | 125.24998 | 11397 ft | 323 kts | 15° |
| 2026-05-07 22:43 | 6.29641 | 125.25489 | 11778 ft | 341 kts | 14° |
| 2026-05-07 22:43 | 6.32021 | 125.26008 | 12153 ft | 359 kts | 14° |
| 2026-05-07 22:43 | 6.34518 | 125.26565 | 12510 ft | 376 kts | 15° |
| 2026-05-07 22:44 | 6.37112 | 125.27154 | 13056 ft | 386 kts | 15° |
| 2026-05-07 22:44 | 6.39749 | 125.27756 | 13820 ft | 390 kts | 15° |
| 2026-05-07 22:44 | 6.42437 | 125.28196 | 14482 ft | 397 kts | 3° |
| 2026-05-07 22:44 | 6.45187 | 125.27776 | 15099 ft | 406 kts | 343° |
| 2026-05-07 22:45 | 6.47698 | 125.26437 | 15756 ft | 413 kts | 325° |
| 2026-05-07 22:45 | 6.49951 | 125.24633 | 16464 ft | 416 kts | 322° |
| 2026-05-07 22:45 | 6.52217 | 125.22778 | 17078 ft | 421 kts | 322° |
| 2026-05-07 22:45 | 6.54505 | 125.20915 | 17688 ft | 425 kts | 322° |
| 2026-05-07 22:46 | 6.56826 | 125.19040 | 18285 ft | 429 kts | 322° |
| 2026-05-07 22:46 | 6.59138 | 125.17185 | 18792 ft | 433 kts | 322° |
| 2026-05-07 22:46 | 6.61542 | 125.15261 | 19330 ft | 437 kts | 322° |
| 2026-05-07 22:46 | 6.63895 | 125.13380 | 19838 ft | 440 kts | 322° |
| 2026-05-07 22:47 | 6.66305 | 125.11454 | 20362 ft | 443 kts | 322° |
| 2026-05-07 22:47 | 6.68729 | 125.09514 | 20884 ft | 447 kts | 322° |
| 2026-05-07 22:47 | 6.71172 | 125.07560 | 21390 ft | 450 kts | 322° |
| 2026-05-07 22:47 | 6.73632 | 125.05593 | 21889 ft | 454 kts | 322° |
| 2026-05-07 22:48 | 6.76113 | 125.03608 | 22387 ft | 457 kts | 322° |
| 2026-05-07 22:48 | 6.78617 | 125.01606 | 22873 ft | 461 kts | 322° |
| 2026-05-07 22:48 | 6.81128 | 124.99597 | 23350 ft | 464 kts | 322° |
| 2026-05-07 22:48 | 6.83664 | 124.97567 | 23766 ft | 467 kts | 322° |
| 2026-05-07 22:49 | 6.86217 | 124.95525 | 24181 ft | 469 kts | 322° |
| 2026-05-07 22:49 | 6.88892 | 124.93639 | 24584 ft | 471 kts | 330° |
| 2026-05-07 22:49 | 6.91828 | 124.92171 | 24995 ft | 472 kts | 339° |
| 2026-05-07 22:49 | 6.94960 | 124.91156 | 25406 ft | 474 kts | 347° |
| 2026-05-07 22:50 | 6.98184 | 124.90450 | 25821 ft | 476 kts | 349° |
| 2026-05-07 22:50 | 7.01436 | 124.89800 | 26211 ft | 478 kts | 349° |
| 2026-05-07 22:50 | 7.04710 | 124.89154 | 26598 ft | 481 kts | 349° |
| 2026-05-07 22:50 | 7.08001 | 124.88496 | 26991 ft | 484 kts | 349° |
| 2026-05-07 22:51 | 7.11310 | 124.87825 | 27381 ft | 487 kts | 349° |
| 2026-05-07 22:51 | 7.14630 | 124.87145 | 27754 ft | 489 kts | 349° |
| 2026-05-07 22:51 | 7.17978 | 124.86454 | 28116 ft | 492 kts | 349° |
| 2026-05-07 22:51 | 7.21341 | 124.85758 | 28552 ft | 494 kts | 349° |
| 2026-05-07 22:52 | 7.24697 | 124.85064 | 29092 ft | 493 kts | 349° |
| 2026-05-07 22:52 | 7.28051 | 124.84372 | 29671 ft | 491 kts | 349° |
| 2026-05-07 22:52 | 7.31389 | 124.83684 | 30193 ft | 489 kts | 349° |
| 2026-05-07 22:52 | 7.34725 | 124.82997 | 30680 ft | 488 kts | 349° |
| 2026-05-07 22:53 | 7.38044 | 124.82312 | 31177 ft | 486 kts | 349° |
| 2026-05-07 22:53 | 7.41344 | 124.81631 | 31693 ft | 484 kts | 349° |
| 2026-05-07 22:53 | 7.44632 | 124.80952 | 32205 ft | 481 kts | 349° |
| 2026-05-07 22:53 | 7.47911 | 124.80275 | 32732 ft | 479 kts | 349° |
| 2026-05-07 22:54 | 7.51173 | 124.79602 | 33245 ft | 478 kts | 349° |
| 2026-05-07 22:54 | 7.54428 | 124.78930 | 33687 ft | 478 kts | 349° |
| 2026-05-07 22:54 | 7.57690 | 124.78257 | 34115 ft | 478 kts | 348° |
| 2026-05-07 22:54 | 7.60929 | 124.77590 | 34549 ft | 476 kts | 348° |
| 2026-05-07 22:55 | 7.64131 | 124.76930 | 35014 ft | 474 kts | 348° |
| 2026-05-07 22:55 | 7.67399 | 124.76256 | 35488 ft | 472 kts | 348° |
| 2026-05-07 22:55 | 7.70565 | 124.75602 | 35943 ft | 470 kts | 348° |
| 2026-05-07 22:55 | 7.73764 | 124.74941 | 36387 ft | 469 kts | 347° |
| 2026-05-07 22:56 | 7.76959 | 124.74281 | 36776 ft | 469 kts | 347° |
| 2026-05-07 22:56 | 7.80157 | 124.73619 | 37129 ft | 470 kts | 347° |
| 2026-05-07 22:56 | 7.83363 | 124.72956 | 37487 ft | 471 kts | 347° |
| 2026-05-07 22:56 | 7.86576 | 124.72291 | 37838 ft | 472 kts | 347° |
| 2026-05-07 22:57 | 7.89799 | 124.71624 | 37914 ft | 473 kts | 347° |
| 2026-05-07 22:57 | 7.96253 | 124.70288 | 37922 ft | 473 kts | 347° |
| 2026-05-07 22:58 | 8.02697 | 124.68957 | 37915 ft | 473 kts | 347° |
| 2026-05-07 22:58 | 8.09149 | 124.67626 | 37917 ft | 473 kts | 347° |
| 2026-05-07 22:59 | 8.15606 | 124.66288 | 37906 ft | 474 kts | 347° |
| 2026-05-07 22:59 | 8.22063 | 124.64954 | 37905 ft | 474 kts | 347° |
| 2026-05-07 23:00 | 8.28522 | 124.63619 | 37895 ft | 474 kts | 347° |
| 2026-05-07 23:00 | 8.34960 | 124.62206 | 37884 ft | 473 kts | 344° |
| 2026-05-07 23:01 | 8.41240 | 124.60213 | 37871 ft | 472 kts | 338° |
| 2026-05-07 23:01 | 8.47261 | 124.57559 | 37868 ft | 473 kts | 332° |
| 2026-05-07 23:02 | 8.53030 | 124.54341 | 37862 ft | 473 kts | 329° |
| 2026-05-07 23:02 | 8.58745 | 124.51027 | 37856 ft | 474 kts | 329° |
| 2026-05-07 23:03 | 8.64466 | 124.47715 | 37851 ft | 474 kts | 329° |
| 2026-05-07 23:03 | 8.70188 | 124.44409 | 37850 ft | 473 kts | 329° |
| 2026-05-07 23:04 | 8.75870 | 124.41125 | 37852 ft | 473 kts | 329° |
| 2026-05-07 23:04 | 8.81579 | 124.37828 | 37849 ft | 472 kts | 329° |
| 2026-05-07 23:05 | 8.87285 | 124.34528 | 37844 ft | 472 kts | 329° |
| 2026-05-07 23:05 | 8.92985 | 124.31230 | 37847 ft | 472 kts | 329° |
| 2026-05-07 23:06 | 8.98682 | 124.27934 | 37848 ft | 472 kts | 329° |
| 2026-05-07 23:06 | 9.04377 | 124.24638 | 37848 ft | 472 kts | 329° |
| 2026-05-07 23:07 | 9.10080 | 124.21335 | 37849 ft | 471 kts | 329° |